Time;durP1;ratioP1;P1;durP2;ratioP2;P2;SDS_P1;SDS_P2;PMS_P1;PMS_P2;Temp;Humidity;BMP_temperature;BMP_pressure;BME280_temperature;BME280_humidity;BME280_pressure;Samples;Min_cycle;Max_cycle;Signal;HPM_P1;HPM_P2
2022/08/30 00:01:01;;;;;;;;;;;;;;;21.71;58.62;101863.06;1026010;28;666;-73
2022/08/30 00:01:34;;;;;;;;;;;;;;;21.71;58.50;101863.06;1024921;29;637;-72
2022/08/30 00:02:24;;;;;;;;;;;;;;;21.71;58.62;101857.63;1021126;29;646;-72
2022/08/30 00:03:15;;;;;;;;;;;;;;;21.70;58.48;101866.78;1021174;29;640;-72
2022/08/30 00:04:07;;;;;;;;;;;;;;;21.71;58.48;101862.22;1022231;28;623;-72
2022/08/30 00:05:00;;;;;;;;;;;;;;;21.70;58.67;101869.50;1026504;28;657;-73
2022/08/30 00:05:50;;;;;;;;;;;;;;;21.67;58.75;101867.09;1026446;28;681;-72
2022/08/30 00:06:41;;;;;;;;;;;;;;;21.67;58.61;101863.53;1029974;28;701;-72
2022/08/30 00:07:31;;;;;;;;;;;;;;;21.68;58.86;101860.63;1029394;28;653;-73
2022/08/30 00:08:22;;;;;;;;;;;;;;;21.69;58.79;101867.78;1029376;28;681;-72
2022/08/30 00:09:13;;;;;;;;;;;;;;;21.68;58.56;101871.50;1029460;28;642;-72
2022/08/30 00:10:03;;;;;;;;;;;;;;;21.67;58.68;101867.09;1029495;28;654;-73
2022/08/30 00:10:54;;;;;;;;;;;;;;;21.68;58.65;101862.50;1026248;28;690;-73
2022/08/30 00:11:44;;;;;;;;;;;;;;;21.67;58.68;101866.25;1025047;28;697;-73
2022/08/30 00:12:34;;;;;;;;;;;;;;;21.67;58.58;101869.81;1029059;28;632;-73
2022/08/30 00:13:25;;;;;;;;;;;;;;;21.68;58.66;101859.78;1029510;28;665;-72
2022/08/30 00:14:15;;;;;;;;;;;;;;;21.68;58.66;101863.34;1029984;28;693;-73
2022/08/30 00:15:06;;;;;;;;;;;;;;;21.67;58.50;101855.38;1029426;28;611;-73
2022/08/30 00:15:57;;;;;;;;;;;;;;;21.65;58.68;101862.81;1029379;28;640;-73
2022/08/30 00:16:47;;;;;;;;;;;;;;;21.64;58.60;101864.69;1029362;28;654;-73
2022/08/30 00:17:38;;;;;;;;;;;;;;;21.66;58.94;101867.25;1029271;28;693;-73
2022/08/30 00:18:28;;;;;;;;;;;;;;;21.64;58.88;101856.53;1024133;28;1421;-73
2022/08/30 00:19:19;;;;;;;;;;;;;;;21.66;58.66;101857.25;1022359;28;689;-72
2022/08/30 00:20:09;;;;;;;;;;;;;;;21.66;58.94;101865.38;1024765;29;663;-73
2022/08/30 00:20:59;;;;;;;;;;;;;;;21.64;58.49;101855.69;1024271;29;656;-73
2022/08/30 00:21:50;;;;;;;;;;;;;;;21.64;58.61;101850.25;1025114;28;623;-73
2022/08/30 00:22:40;;;;;;;;;;;;;;;21.64;58.66;101858.41;1025099;28;694;-72
2022/08/30 00:23:31;;;;;;;;;;;;;;;21.64;58.50;101853.81;1021219;29;615;-73
2022/08/30 00:24:21;;;;;;;;;;;;;;;21.64;58.47;101855.69;1021135;29;737;-72
2022/08/30 00:25:12;;;;;;;;;;;;;;;21.62;58.64;101850.41;1024455;29;639;-72
2022/08/30 00:26:02;;;;;;;;;;;;;;;21.63;58.55;101859.41;1025019;29;650;-72
2022/08/30 00:26:52;;;;;;;;;;;;;;;21.62;58.65;101858.53;1023664;29;816;-72
2022/08/30 00:27:44;;;;;;;;;;;;;;;21.62;58.65;101853.09;1024428;29;630;-72
2022/08/30 00:28:34;;;;;;;;;;;;;;;21.63;58.51;101856.69;1024897;29;670;-72
2022/08/30 00:29:24;;;;;;;;;;;;;;;21.62;58.47;101858.53;1025370;28;665;-72
2022/08/30 00:30:15;;;;;;;;;;;;;;;21.62;58.63;101860.41;1024328;29;639;-72
2022/08/30 00:31:06;;;;;;;;;;;;;;;21.62;58.57;101857.69;1028784;28;1981;-72
2022/08/30 00:31:56;;;;;;;;;;;;;;;21.61;58.59;101853.25;1029284;28;634;-72
2022/08/30 00:32:47;;;;;;;;;;;;;;;21.62;58.70;101860.41;1029275;28;630;-72
2022/08/30 00:33:37;;;;;;;;;;;;;;;21.61;58.53;101856.81;1029271;28;594;-72
2022/08/30 00:34:27;;;;;;;;;;;;;;;21.61;58.72;101855.97;1025653;28;686;-72
2022/08/30 00:35:19;;;;;;;;;;;;;;;21.60;58.73;101865.97;1026148;28;666;-72
2022/08/30 00:36:09;;;;;;;;;;;;;;;21.60;58.62;101863.25;1029810;28;638;-72
2022/08/30 00:37:01;;;;;;;;;;;;;;;21.59;58.51;101858.81;1029244;28;662;-72
2022/08/30 00:37:52;;;;;;;;;;;;;;;21.59;58.61;101860.69;1029249;28;661;-72
2022/08/30 00:38:42;;;;;;;;;;;;;;;21.59;58.65;101858.81;1029165;28;653;-72
2022/08/30 00:39:32;;;;;;;;;;;;;;;21.57;58.67;101860.81;1029311;28;717;-72
2022/08/30 00:40:23;;;;;;;;;;;;;;;21.58;58.91;101856.25;1026110;28;692;-72
2022/08/30 00:41:13;;;;;;;;;;;;;;;21.57;58.56;101854.53;1025501;28;704;-72
2022/08/30 00:42:04;;;;;;;;;;;;;;;21.57;58.75;101849.97;1029818;28;630;-72
2022/08/30 00:42:54;;;;;;;;;;;;;;;21.56;58.69;101853.69;1025977;28;1268;-72
2022/08/30 00:43:44;;;;;;;;;;;;;;;21.56;58.73;101852.84;1024965;28;709;-72
2022/08/30 00:44:35;;;;;;;;;;;;;;;21.56;58.59;101847.41;1029138;28;729;-72
2022/08/30 00:45:25;;;;;;;;;;;;;;;21.56;58.86;101842.84;1028831;28;630;-73
2022/08/30 00:46:16;;;;;;;;;;;;;;;21.56;58.83;101841.97;1028600;28;878;-72
2022/08/30 00:47:06;;;;;;;;;;;;;;;21.55;58.69;101846.53;1028618;28;741;-72
2022/08/30 00:47:57;;;;;;;;;;;;;;;21.56;58.90;101852.84;1028647;28;650;-72
2022/08/30 00:48:47;;;;;;;;;;;;;;;21.55;58.93;101845.69;1028669;28;647;-72
2022/08/30 00:49:37;;;;;;;;;;;;;;;21.55;58.77;101845.69;1028782;28;675;-73
2022/08/30 00:50:28;;;;;;;;;;;;;;;21.55;58.95;101851.13;1028647;28;643;-73
2022/08/30 00:51:19;;;;;;;;;;;;;;;21.55;58.95;101845.69;1028636;28;1886;-72
2022/08/30 00:52:11;;;;;;;;;;;;;;;21.54;58.96;101850.25;1029221;28;666;-72
2022/08/30 00:53:01;;;;;;;;;;;;;;;21.54;58.78;101852.97;1032141;28;1194;-73
2022/08/30 00:53:53;;;;;;;;;;;;;;;21.53;59.09;101853.97;1031528;28;639;-72
2022/08/30 00:54:44;;;;;;;;;;;;;;;21.54;59.00;101855.69;1028086;28;1427;-72
2022/08/30 00:55:34;;;;;;;;;;;;;;;21.52;59.22;101852.25;1024195;29;679;-72
2022/08/30 00:56:25;;;;;;;;;;;;;;;21.52;59.34;101854.97;1024075;29;790;-72
2022/08/30 00:57:15;;;;;;;;;;;;;;;21.52;59.10;101854.97;1024216;29;679;-72
2022/08/30 00:58:06;;;;;;;;;;;;;;;21.53;59.15;101855.81;1024616;29;639;-72
2022/08/30 00:58:56;;;;;;;;;;;;;;;21.52;59.22;101849.53;1025819;28;603;-72
2022/08/30 00:59:46;;;;;;;;;;;;;;;21.52;59.34;101857.69;1025706;28;701;-72
2022/08/30 01:00:37;;;;;;;;;;;;;;;21.51;59.29;101861.41;1020983;29;631;-72
2022/08/30 01:01:27;;;;;;;;;;;;;;;21.51;59.23;101860.53;1022025;28;635;-71
2022/08/30 01:02:18;;;;;;;;;;;;;;;21.50;59.33;101859.69;1025800;28;638;-71
2022/08/30 01:03:08;;;;;;;;;;;;;;;21.51;59.33;101865.97;1020972;29;659;-72
2022/08/30 01:03:58;;;;;;;;;;;;;;;21.51;59.13;101865.97;1022095;28;650;-72
2022/08/30 01:04:50;;;;;;;;;;;;;;;21.50;58.86;101865.09;1025721;28;606;-72
2022/08/30 01:05:40;;;;;;;;;;;;;;;21.49;59.18;101863.44;1021554;28;685;-72
2022/08/30 01:06:32;;;;;;;;;;;;;;;21.48;59.22;101865.28;1022126;28;647;-72
2022/08/30 01:07:24;;;;;;;;;;;;;;;21.50;59.06;101869.72;1024329;29;690;-72
2022/08/30 01:08:14;;;;;;;;;;;;;;;21.47;59.14;101869.00;1025352;28;634;-72
2022/08/30 01:09:04;;;;;;;;;;;;;;;21.47;59.00;101860.00;1029820;28;681;-71
2022/08/30 01:09:55;;;;;;;;;;;;;;;21.48;59.17;101864.44;1028451;28;639;-71
2022/08/30 01:10:45;;;;;;;;;;;;;;;21.48;59.14;101867.13;1028337;28;623;-72
2022/08/30 01:11:36;;;;;;;;;;;;;;;21.47;59.14;101865.44;1027980;28;694;-72
2022/08/30 01:12:27;;;;;;;;;;;;;;;21.46;59.06;101863.72;1028568;28;651;-72
2022/08/30 01:13:17;;;;;;;;;;;;;;;21.46;58.84;101853.72;1028110;28;713;-72
2022/08/30 01:14:08;;;;;;;;;;;;;;;21.44;59.21;101860.28;1027814;28;706;-72
2022/08/30 01:14:58;;;;;;;;;;;;;;;21.46;59.13;101867.28;1028096;28;692;-72
2022/08/30 01:15:49;;;;;;;;;;;;;;;21.45;59.12;101860.16;1028236;28;698;-71
2022/08/30 01:16:39;;;;;;;;;;;;;;;21.46;59.13;101866.44;1028293;28;626;-72
2022/08/30 01:17:30;;;;;;;;;;;;;;;21.46;59.09;101859.16;1029949;28;661;-71
2022/08/30 01:18:20;;;;;;;;;;;;;;;21.45;59.23;101864.72;1029707;28;661;-72
2022/08/30 01:19:11;;;;;;;;;;;;;;;21.44;59.04;101861.16;1024567;28;1406;-72
2022/08/30 01:20:01;;;;;;;;;;;;;;;21.44;59.04;101860.28;1025239;28;690;-71
2022/08/30 01:20:52;;;;;;;;;;;;;;;21.44;59.04;101865.72;1022415;28;1442;-72
2022/08/30 01:21:42;;;;;;;;;;;;;;;21.43;58.92;101864.84;1025372;28;1281;-72
2022/08/30 01:22:32;;;;;;;;;;;;;;;21.44;59.31;101860.28;1028188;28;1344;-72
2022/08/30 01:23:23;;;;;;;;;;;;;;;21.43;59.09;101862.16;1027868;28;609;-72
2022/08/30 01:24:14;;;;;;;;;;;;;;;21.42;59.08;101857.72;1028466;28;670;-72
2022/08/30 01:25:04;;;;;;;;;;;;;;;21.41;59.10;101858.72;1027991;28;631;-72
2022/08/30 01:25:55;;;;;;;;;;;;;;;21.41;59.11;101861.44;1027884;28;607;-72
2022/08/30 01:26:45;;;;;;;;;;;;;;;21.41;59.03;101864.13;1028038;28;664;-73
2022/08/30 01:27:35;;;;;;;;;;;;;;;21.40;59.06;101864.28;1028305;28;670;-73
2022/08/30 01:28:26;;;;;;;;;;;;;;;21.41;59.00;101860.56;1029264;28;627;-72
2022/08/30 01:29:16;;;;;;;;;;;;;;;21.41;59.01;101871.41;1025936;28;681;-72
2022/08/30 01:30:07;;;;;;;;;;;;;;;21.41;58.85;101868.72;1025982;28;677;-71
2022/08/30 01:30:57;;;;;;;;;;;;;;;21.41;58.79;101860.56;1025902;28;650;-71
2022/08/30 01:31:48;;;;;;;;;;;;;;;21.42;58.93;101862.28;1024935;28;717;-72
2022/08/30 01:32:38;;;;;;;;;;;;;;;21.41;58.96;101849.72;1028074;28;698;-72
2022/08/30 01:33:29;;;;;;;;;;;;;;;21.41;58.77;101863.28;1024899;28;1539;-72
2022/08/30 01:34:19;;;;;;;;;;;;;;;21.40;59.00;101864.28;1024089;29;625;-72
2022/08/30 01:35:09;;;;;;;;;;;;;;;21.40;58.86;101858.84;1024079;29;651;-73
2022/08/30 01:36:00;;;;;;;;;;;;;;;21.40;58.80;101858.84;1023908;29;588;-72
2022/08/30 01:36:50;;;;;;;;;;;;;;;21.40;58.73;101859.72;1024119;29;631;-73
2022/08/30 01:37:41;;;;;;;;;;;;;;;21.41;58.75;101863.28;1023854;29;620;-72
2022/08/30 01:38:31;;;;;;;;;;;;;;;21.39;58.84;101860.72;1024083;29;651;-72
2022/08/30 01:39:22;;;;;;;;;;;;;;;21.39;58.74;101860.72;1024201;28;683;-73
2022/08/30 01:40:12;;;;;;;;;;;;;;;21.39;58.66;101868.00;1020721;29;623;-73
2022/08/30 01:41:02;;;;;;;;;;;;;;;21.39;58.98;101860.72;1021575;28;630;-72
2022/08/30 01:41:53;;;;;;;;;;;;;;;21.40;58.84;101872.41;1024594;28;638;-72
2022/08/30 01:42:43;;;;;;;;;;;;;;;21.38;58.82;101860.84;1024041;29;627;-73
2022/08/30 01:43:34;;;;;;;;;;;;;;;21.38;58.79;101866.28;1023956;29;714;-72
2022/08/30 01:44:24;;;;;;;;;;;;;;;21.40;58.83;101876.00;1024896;28;698;-72
2022/08/30 01:45:15;;;;;;;;;;;;;;;21.38;58.98;101860.84;1026107;28;1512;-72
2022/08/30 01:46:05;;;;;;;;;;;;;;;21.38;58.87;101869.00;1029729;28;653;-72
2022/08/30 01:46:55;;;;;;;;;;;;;;;21.39;58.71;101873.41;1028250;28;685;-72
2022/08/30 01:47:46;;;;;;;;;;;;;;;21.39;58.92;101868.84;1028068;28;640;-72
2022/08/30 01:48:36;;;;;;;;;;;;;;;21.38;58.61;101864.44;1028001;28;615;-73
2022/08/30 01:49:27;;;;;;;;;;;;;;;21.39;58.89;101868.00;1027825;28;643;-72
2022/08/30 01:50:17;;;;;;;;;;;;;;;21.38;58.91;101869.00;1028309;28;635;-72
2022/08/30 01:51:08;;;;;;;;;;;;;;;21.38;58.89;101875.28;1028300;28;1965;-72
2022/08/30 01:51:58;;;;;;;;;;;;;;;21.36;58.76;101873.69;1027875;28;694;-72
2022/08/30 01:52:48;;;;;;;;;;;;;;;21.37;58.99;101865.44;1029313;28;1257;-71
2022/08/30 01:53:39;;;;;;;;;;;;;;;21.35;59.00;101874.69;1029168;28;1427;-71
2022/08/30 01:54:29;;;;;;;;;;;;;;;21.35;58.82;101877.41;1024903;28;721;-72
2022/08/30 01:55:20;;;;;;;;;;;;;;;21.35;58.77;101877.41;1025031;28;588;-71
2022/08/30 01:56:10;;;;;;;;;;;;;;;21.35;58.59;101878.28;1024557;29;654;-71
2022/08/30 01:57:01;;;;;;;;;;;;;;;21.35;58.62;101872.00;1025027;28;627;-72
2022/08/30 01:57:51;;;;;;;;;;;;;;;21.35;58.68;101878.28;1020720;29;698;-71
2022/08/30 01:58:42;;;;;;;;;;;;;;;21.33;58.86;101880.25;1022344;29;1066;-72
2022/08/30 01:59:32;;;;;;;;;;;;;;;21.34;58.86;101881.13;1029596;28;697;-71
2022/08/30 02:00:22;;;;;;;;;;;;;;;21.34;58.71;101881.97;1029373;28;871;-71
2022/08/30 02:01:13;;;;;;;;;;;;;;;21.34;58.72;101881.13;1029659;28;551;-71
2022/08/30 02:02:03;;;;;;;;;;;;;;;21.31;58.79;101876.00;1029714;28;646;-72
2022/08/30 02:02:55;;;;;;;;;;;;;;;21.31;58.77;101876.00;1025304;28;725;-71
2022/08/30 02:03:45;;;;;;;;;;;;;;;21.33;58.78;101873.97;1024805;28;686;-71
2022/08/30 02:04:35;;;;;;;;;;;;;;;21.32;58.66;101874.97;1028699;28;643;-71
2022/08/30 02:05:26;;;;;;;;;;;;;;;21.30;58.39;101880.56;1025604;28;695;-72
2022/08/30 02:06:16;;;;;;;;;;;;;;;21.31;58.93;101876.00;1025118;28;686;-71
2022/08/30 02:07:07;;;;;;;;;;;;;;;21.30;58.89;101871.59;1027788;28;1465;-73
2022/08/30 02:07:57;;;;;;;;;;;;;;;21.31;58.71;101870.59;1027834;28;670;-73
2022/08/30 02:08:48;;;;;;;;;;;;;;;21.31;58.68;101865.16;1029808;28;682;-72
2022/08/30 02:09:38;;;;;;;;;;;;;;;21.31;58.79;101870.59;1029737;28;627;-73
2022/08/30 02:10:29;;;;;;;;;;;;;;;21.30;58.74;101869.72;1027906;28;682;-72
2022/08/30 02:11:19;;;;;;;;;;;;;;;21.31;58.80;101870.59;1028809;28;1886;-73
2022/08/30 02:12:10;;;;;;;;;;;;;;;21.31;58.71;101874.16;1027977;28;626;-73
2022/08/30 02:13:00;;;;;;;;;;;;;;;21.30;58.79;101869.72;1027995;28;627;-73
2022/08/30 02:13:51;;;;;;;;;;;;;;;21.30;58.74;101872.44;1028351;28;682;-73
2022/08/30 02:14:41;;;;;;;;;;;;;;;21.30;58.85;101871.59;1028260;28;725;-73
2022/08/30 02:15:34;;;;;;;;;;;;;;;21.28;58.89;101868.16;1029257;28;676;-73
2022/08/30 02:16:24;;;;;;;;;;;;;;;21.28;58.84;101876.28;1028942;28;614;-73
2022/08/30 02:17:14;;;;;;;;;;;;;;;21.28;58.79;101865.44;1025957;28;1634;-72
2022/08/30 02:18:05;;;;;;;;;;;;;;;21.28;58.73;101869.03;1024123;29;748;-72
2022/08/30 02:18:56;;;;;;;;;;;;;;;21.29;58.75;101872.59;1024121;29;651;-72
2022/08/30 02:19:48;;;;;;;;;;;;;;;21.28;58.86;101865.44;1024563;29;686;-72
2022/08/30 02:20:39;;;;;;;;;;;;;;;21.28;58.80;101866.31;1024927;28;677;-72
2022/08/30 02:21:29;;;;;;;;;;;;;;;21.28;58.67;101865.44;1020919;29;694;-72
2022/08/30 02:22:20;;;;;;;;;;;;;;;21.28;58.74;101862.75;1020716;29;670;-71
2022/08/30 02:23:10;;;;;;;;;;;;;;;21.26;58.91;101860.16;1020874;29;646;-71
2022/08/30 02:24:01;;;;;;;;;;;;;;;21.26;58.82;101867.44;1025848;28;649;-71
2022/08/30 02:24:51;;;;;;;;;;;;;;;21.25;58.82;101861.16;1024281;28;1496;-71
2022/08/30 02:25:42;;;;;;;;;;;;;;;21.26;58.69;101862.88;1024502;29;796;-72
2022/08/30 02:26:35;;;;;;;;;;;;;;;21.25;58.79;101858.47;1023862;29;1118;-71
2022/08/30 02:27:25;;;;;;;;;;;;;;;21.25;58.95;101861.16;1024478;28;1101;-71
2022/08/30 02:28:18;;;;;;;;;;;;;;;21.25;58.90;101868.44;1024709;28;663;-71
2022/08/30 02:29:08;;;;;;;;;;;;;;;21.24;59.02;101859.44;1024467;29;630;-72
2022/08/30 02:29:59;;;;;;;;;;;;;;;21.24;58.73;101856.75;1023895;29;693;-71
2022/08/30 02:30:49;;;;;;;;;;;;;;;21.23;58.99;101863.16;1024054;29;642;-72
2022/08/30 02:31:40;;;;;;;;;;;;;;;21.24;59.06;101864.03;1025834;28;1397;-72
2022/08/30 02:32:30;;;;;;;;;;;;;;;21.24;59.18;101869.44;1027869;28;591;-72
2022/08/30 02:33:21;;;;;;;;;;;;;;;21.23;58.84;101865.03;1027913;28;701;-72
2022/08/30 02:34:11;;;;;;;;;;;;;;;21.24;58.87;101858.59;1027853;28;631;-71
2022/08/30 02:35:01;;;;;;;;;;;;;;;21.22;58.91;101866.00;1028221;28;674;-71
2022/08/30 02:35:52;;;;;;;;;;;;;;;21.24;58.82;101866.72;1028710;28;615;-72
2022/08/30 02:36:42;;;;;;;;;;;;;;;21.24;58.98;101864.03;1028780;28;682;-72
2022/08/30 02:37:33;;;;;;;;;;;;;;;21.23;58.97;101859.59;1028610;28;638;-71
2022/08/30 02:38:23;;;;;;;;;;;;;;;21.22;58.86;101858.75;1028937;28;666;-71
2022/08/30 02:39:14;;;;;;;;;;;;;;;21.22;58.95;101860.59;1030085;28;709;-72
2022/08/30 02:40:06;;;;;;;;;;;;;;;21.22;58.98;101866.00;1030276;28;1503;-71
2022/08/30 02:40:56;;;;;;;;;;;;;;;21.22;58.88;101855.16;1029008;28;678;-72
2022/08/30 02:41:47;;;;;;;;;;;;;;;21.21;59.05;101858.88;1030034;28;666;-71
2022/08/30 02:42:37;;;;;;;;;;;;;;;21.20;59.05;101855.31;1030412;28;744;-72
2022/08/30 02:43:28;;;;;;;;;;;;;;;21.21;58.98;101861.59;1029217;28;741;-72
2022/08/30 02:44:18;;;;;;;;;;;;;;;21.22;59.00;101861.44;1029026;28;701;-72
2022/08/30 02:45:09;;;;;;;;;;;;;;;21.21;58.84;101857.03;1030311;28;635;-72
2022/08/30 02:45:59;;;;;;;;;;;;;;;21.22;58.95;101863.31;1024619;28;1433;-72
2022/08/30 02:46:49;;;;;;;;;;;;;;;21.21;59.06;101853.47;1022736;28;724;-72
2022/08/30 02:47:40;;;;;;;;;;;;;;;21.21;58.76;101858.88;1026098;28;649;-72
2022/08/30 02:48:30;;;;;;;;;;;;;;;21.20;59.09;101855.31;1025481;28;713;-72
2022/08/30 02:49:21;;;;;;;;;;;;;;;21.20;58.96;101857.16;1025320;29;754;-72
2022/08/30 02:50:11;;;;;;;;;;;;;;;21.20;59.11;101849.88;1024727;29;869;-72
2022/08/30 02:51:02;;;;;;;;;;;;;;;21.18;59.22;101860.00;1024763;29;698;-72
2022/08/30 02:51:52;;;;;;;;;;;;;;;21.19;58.84;101863.56;1024328;29;654;-72
2022/08/30 02:52:43;;;;;;;;;;;;;;;21.19;59.04;101852.72;1026305;28;1274;-72
2022/08/30 02:53:33;;;;;;;;;;;;;;;21.19;59.22;101858.13;1033445;28;622;-73
2022/08/30 02:54:23;;;;;;;;;;;;;;;21.19;59.20;101852.72;1033433;28;709;-73
2022/08/30 02:55:14;;;;;;;;;;;;;;;21.20;58.96;101859.88;1031974;28;635;-72
2022/08/30 02:56:04;;;;;;;;;;;;;;;21.19;59.02;101856.28;1032087;28;674;-73
2022/08/30 02:56:56;;;;;;;;;;;;;;;21.19;58.99;101855.41;1031926;28;652;-73
2022/08/30 02:57:46;;;;;;;;;;;;;;;21.15;59.13;101847.56;1032039;28;627;-71
2022/08/30 02:58:37;;;;;;;;;;;;;;;21.16;59.09;101848.44;1032292;28;626;-72
2022/08/30 02:59:27;;;;;;;;;;;;;;;21.15;59.00;101849.44;1031992;28;635;-72
2022/08/30 03:00:17;;;;;;;;;;;;;;;21.15;59.03;101850.28;1025804;28;670;-72
2022/08/30 03:01:08;;;;;;;;;;;;;;;21.17;58.89;101849.28;1026361;28;756;-71
2022/08/30 03:01:58;;;;;;;;;;;;;;;21.17;59.10;101849.28;1026327;28;744;-72
2022/08/30 03:02:49;;;;;;;;;;;;;;;21.17;59.11;101843.84;1026285;28;630;-72
2022/08/30 03:03:39;;;;;;;;;;;;;;;21.17;59.18;101846.56;1026266;28;724;-72
2022/08/30 03:04:30;;;;;;;;;;;;;;;21.16;59.16;101848.44;1026299;28;701;-72
2022/08/30 03:05:20;;;;;;;;;;;;;;;21.17;59.17;101844.72;1026341;28;623;-72
2022/08/30 03:06:11;;;;;;;;;;;;;;;21.15;59.23;101842.16;1025842;28;670;-72
2022/08/30 03:07:01;;;;;;;;;;;;;;;21.17;59.36;101843.84;1026258;28;615;-72
2022/08/30 03:07:51;;;;;;;;;;;;;;;21.14;59.24;101843.16;1026222;28;721;-72
2022/08/30 03:08:42;;;;;;;;;;;;;;;21.15;59.18;101838.56;1026212;28;623;-72
2022/08/30 03:09:32;;;;;;;;;;;;;;;21.12;59.19;101845.16;1025707;28;1171;-72
2022/08/30 03:10:23;;;;;;;;;;;;;;;21.13;59.30;101833.34;1026323;28;631;-72
2022/08/30 03:11:13;;;;;;;;;;;;;;;21.13;59.10;101837.91;1022385;28;2019;-72
2022/08/30 03:12:05;;;;;;;;;;;;;;;21.14;59.03;101840.44;1021198;29;1453;-72
2022/08/30 03:12:56;;;;;;;;;;;;;;;21.12;59.32;101842.47;1025137;29;689;-71
2022/08/30 03:13:47;;;;;;;;;;;;;;;21.11;59.23;101837.19;1025677;28;1422;-71
2022/08/30 03:14:37;;;;;;;;;;;;;;;21.12;59.13;101845.16;1025615;28;619;-71
2022/08/30 03:15:27;;;;;;;;;;;;;;;21.13;59.05;101836.03;1024686;29;662;-72
2022/08/30 03:16:18;;;;;;;;;;;;;;;21.12;59.09;101839.75;1024501;29;678;-71
2022/08/30 03:17:08;;;;;;;;;;;;;;;21.13;58.91;101835.19;1025362;28;634;-71
2022/08/30 03:17:59;;;;;;;;;;;;;;;21.11;59.06;101832.63;1025359;28;623;-71
2022/08/30 03:18:49;;;;;;;;;;;;;;;21.13;59.11;101840.59;1025195;29;619;-71
2022/08/30 03:19:40;;;;;;;;;;;;;;;21.12;59.19;101839.75;1024920;28;1414;-72
2022/08/30 03:20:30;;;;;;;;;;;;;;;21.09;59.09;101840.03;1024010;29;671;-71
2022/08/30 03:21:20;;;;;;;;;;;;;;;21.11;58.78;101848.88;1024550;29;671;-71
2022/08/30 03:22:11;;;;;;;;;;;;;;;21.10;59.02;101840.88;1024490;29;668;-71
2022/08/30 03:23:01;;;;;;;;;;;;;;;21.10;59.04;101839.03;1025184;29;647;-72
2022/08/30 03:23:52;;;;;;;;;;;;;;;21.08;59.29;101832.91;1024393;29;722;-71
2022/08/30 03:24:42;;;;;;;;;;;;;;;21.09;58.92;101839.19;1024623;29;638;-71
2022/08/30 03:25:33;;;;;;;;;;;;;;;21.08;59.10;101840.19;1024595;29;866;-71
2022/08/30 03:26:23;;;;;;;;;;;;;;;21.07;59.17;101841.16;1029077;28;638;-71
2022/08/30 03:27:13;;;;;;;;;;;;;;;21.07;58.98;101844.75;1029566;28;1034;-72
2022/08/30 03:28:04;;;;;;;;;;;;;;;21.07;59.15;101847.44;1029714;28;654;-71
2022/08/30 03:28:54;;;;;;;;;;;;;;;21.07;58.82;101842.03;1030146;28;653;-71
2022/08/30 03:29:45;;;;;;;;;;;;;;;21.07;58.79;101842.03;1029551;28;697;-71
2022/08/30 03:30:35;;;;;;;;;;;;;;;21.08;59.10;101846.44;1029556;28;670;-71
2022/08/30 03:31:26;;;;;;;;;;;;;;;21.08;59.18;101842.88;1026395;28;1962;-71
2022/08/30 03:32:16;;;;;;;;;;;;;;;21.07;59.22;101842.03;1026471;28;666;-71
2022/08/30 03:33:06;;;;;;;;;;;;;;;21.08;58.85;101851.00;1030284;28;716;-71
2022/08/30 03:33:57;;;;;;;;;;;;;;;21.07;59.09;101847.44;1029497;28;610;-71
2022/08/30 03:34:47;;;;;;;;;;;;;;;21.07;59.00;101847.44;1029578;28;655;-71
2022/08/30 03:35:38;;;;;;;;;;;;;;;21.07;59.08;101844.75;1030198;28;724;-71
2022/08/30 03:36:28;;;;;;;;;;;;;;;21.06;59.19;101845.72;1029593;28;602;-72
2022/08/30 03:37:19;;;;;;;;;;;;;;;21.07;58.89;101841.16;1029605;28;682;-72
2022/08/30 03:38:09;;;;;;;;;;;;;;;21.07;59.11;101843.88;1029513;28;670;-71
2022/08/30 03:39:00;;;;;;;;;;;;;;;21.07;58.52;101843.88;1026489;28;1573;-71
2022/08/30 03:39:50;;;;;;;;;;;;;;;21.08;59.03;101849.16;1023772;28;607;-72
2022/08/30 03:40:40;;;;;;;;;;;;;;;21.07;58.85;101835.75;1025087;29;686;-72
2022/08/30 03:41:31;;;;;;;;;;;;;;;21.06;58.83;101837.59;1026176;28;768;-72
2022/08/30 03:42:21;;;;;;;;;;;;;;;21.06;59.02;101837.59;1025009;29;656;-71
2022/08/30 03:43:12;;;;;;;;;;;;;;;21.06;58.86;101843.03;1026237;28;678;-72
2022/08/30 03:44:02;;;;;;;;;;;;;;;21.05;58.97;101838.59;1026119;28;673;-72
2022/08/30 03:44:53;;;;;;;;;;;;;;;21.04;59.01;101844.16;1024984;29;686;-72
2022/08/30 03:45:43;;;;;;;;;;;;;;;21.04;58.96;101836.88;1026197;28;693;-72
2022/08/30 03:46:34;;;;;;;;;;;;;;;21.04;58.93;101836.88;1026096;28;640;-72
2022/08/30 03:47:24;;;;;;;;;;;;;;;21.04;59.02;101838.75;1026120;28;630;-71
2022/08/30 03:48:14;;;;;;;;;;;;;;;21.03;59.14;101840.59;1026094;28;669;-71
2022/08/30 03:49:05;;;;;;;;;;;;;;;21.03;59.09;101834.31;1026162;28;693;-71
2022/08/30 03:49:55;;;;;;;;;;;;;;;21.02;59.01;101833.47;1026037;28;634;-72
2022/08/30 03:50:46;;;;;;;;;;;;;;;21.02;58.93;101833.47;1026154;28;645;-71
2022/08/30 03:51:36;;;;;;;;;;;;;;;21.03;58.96;101834.31;1029929;28;1953;-71
2022/08/30 03:52:27;;;;;;;;;;;;;;;21.03;58.95;101840.59;1029055;28;650;-71
2022/08/30 03:53:17;;;;;;;;;;;;;;;21.03;58.94;101839.75;1025494;28;619;-71
2022/08/30 03:54:08;;;;;;;;;;;;;;;21.02;59.08;101833.47;1025079;29;647;-72
2022/08/30 03:54:59;;;;;;;;;;;;;;;21.02;58.81;101836.16;1024957;29;630;-71
2022/08/30 03:55:50;;;;;;;;;;;;;;;21.01;59.22;101833.59;1024930;29;690;-71
2022/08/30 03:56:40;;;;;;;;;;;;;;;20.99;58.89;101836.44;1024849;29;683;-71
2022/08/30 03:57:31;;;;;;;;;;;;;;;21.01;58.99;101837.16;1025409;28;765;-72
2022/08/30 03:58:21;;;;;;;;;;;;;;;21.02;59.15;101840.75;1026293;28;690;-71
2022/08/30 03:59:12;;;;;;;;;;;;;;;21.00;58.82;101834.59;1025807;28;661;-71
2022/08/30 04:00:02;;;;;;;;;;;;;;;20.98;59.05;101837.44;1025903;28;683;-71
2022/08/30 04:00:53;;;;;;;;;;;;;;;20.98;59.32;101836.59;1025721;28;634;-71
2022/08/30 04:01:44;;;;;;;;;;;;;;;20.98;58.99;101842.88;1026147;28;653;-71
2022/08/30 04:02:34;;;;;;;;;;;;;;;20.98;58.96;101842.88;1025056;29;662;-72
2022/08/30 04:03:25;;;;;;;;;;;;;;;20.96;58.71;101831.31;1024883;29;667;-72
2022/08/30 04:04:15;;;;;;;;;;;;;;;20.97;58.79;101837.59;1024753;28;670;-72
2022/08/30 04:05:06;;;;;;;;;;;;;;;20.98;59.03;101833.88;1026196;28;689;-72
2022/08/30 04:05:56;;;;;;;;;;;;;;;20.98;58.99;101840.16;1025570;28;677;-72
2022/08/30 04:06:47;;;;;;;;;;;;;;;20.99;59.11;101850.00;1025466;28;647;-72
2022/08/30 04:07:37;;;;;;;;;;;;;;;20.97;58.93;101835.75;1025469;28;752;-72
2022/08/30 04:08:27;;;;;;;;;;;;;;;20.97;59.18;101834.88;1025527;28;702;-72
2022/08/30 04:09:18;;;;;;;;;;;;;;;20.95;59.19;101840.47;1025388;28;615;-72
2022/08/30 04:10:08;;;;;;;;;;;;;;;20.94;59.19;101841.47;1025678;28;641;-72
2022/08/30 04:11:01;;;;;;;;;;;;;;;20.96;58.99;101850.28;1025664;28;681;-72
2022/08/30 04:11:51;;;;;;;;;;;;;;;20.96;59.26;101849.47;1025221;28;638;-73
2022/08/30 04:12:42;;;;;;;;;;;;;;;20.96;58.98;101846.75;1025923;28;651;-72
2022/08/30 04:13:32;;;;;;;;;;;;;;;20.95;58.87;101845.91;1025426;28;603;-72
2022/08/30 04:14:23;;;;;;;;;;;;;;;20.95;58.65;101843.19;1025577;28;645;-72
2022/08/30 04:15:13;;;;;;;;;;;;;;;20.93;59.22;101839.75;1026057;28;614;-72
2022/08/30 04:16:04;;;;;;;;;;;;;;;20.95;59.01;101836.91;1029292;28;1462;-72
2022/08/30 04:16:54;;;;;;;;;;;;;;;20.94;58.82;101841.47;1028212;28;613;-72
2022/08/30 04:17:44;;;;;;;;;;;;;;;20.95;58.91;101847.75;1028246;28;650;-72
2022/08/30 04:18:35;;;;;;;;;;;;;;;20.95;58.86;101845.91;1028094;28;681;-72
2022/08/30 04:19:25;;;;;;;;;;;;;;;20.92;58.95;101843.47;1028309;28;686;-72
2022/08/30 04:20:16;;;;;;;;;;;;;;;20.92;59.09;101848.88;1028485;28;647;-71
2022/08/30 04:21:06;;;;;;;;;;;;;;;20.92;59.01;101846.16;1028357;28;635;-72
2022/08/30 04:21:56;;;;;;;;;;;;;;;20.93;59.13;101845.19;1028333;28;678;-72
2022/08/30 04:22:47;;;;;;;;;;;;;;;20.94;58.95;101844.19;1028502;28;634;-72
2022/08/30 04:23:37;;;;;;;;;;;;;;;20.93;58.67;101853.31;1029814;28;614;-72
2022/08/30 04:24:28;;;;;;;;;;;;;;;20.93;59.13;101855.16;1029897;28;765;-73
2022/08/30 04:25:18;;;;;;;;;;;;;;;20.92;59.10;101848.88;1028242;28;631;-72
2022/08/30 04:26:09;;;;;;;;;;;;;;;20.92;58.83;101848.88;1028292;28;741;-73